Danville, Vermont
Current Conditions -  °F | °C
As of 9:55 PM on Wednesday 22 Oct 2014 (Local Time) from KCDA Reporting Station
Overcast Overcast  
Wind Chill: 44°   Ceiling: 2000
Heat Index: 48°   Visibility: 10mi
Dew Point: 39°   Wind: 10mph
Humidity: 71%   Direction: 330°NNW
Pressure: 30.11"   Gusts: 16mph
Location:  44.41°N, 72.14°W
Report Text: KCDA 230155Z AUTO 33009G14KT 10SM OVC020 09/04 A3011 RMK AO2 T00910041
Loading
Personal Weather Stations






























Interactive Weather Map
Tropical Storm Tracking
New forecast layout! Learn more

10-Day Weather Forecast

Advertisements
Track Severe Weather on mobile